createdAt,value
2018-08-30T00:02:14.789Z,100.00
2018-08-30T00:04:46.917Z,100.00
2018-08-30T00:07:19.077Z,100.00
2018-08-30T00:09:51.147Z,100.00
2018-08-30T00:12:23.228Z,100.00
2018-08-30T00:14:55.319Z,100.00
2018-08-30T00:17:27.367Z,100.00
2018-08-30T00:19:59.506Z,100.00
2018-08-30T00:22:31.626Z,100.00
2018-08-30T00:25:03.751Z,100.00
2018-08-30T00:27:35.831Z,100.00
2018-08-30T00:30:08.015Z,100.00
2018-08-30T00:32:40.051Z,100.00
2018-08-30T00:35:12.228Z,100.00
2018-08-30T00:37:44.452Z,100.00
2018-08-30T00:40:16.568Z,100.00
2018-08-30T00:42:48.674Z,100.00
2018-08-30T00:45:20.846Z,100.00
2018-08-30T00:47:52.943Z,100.00
2018-08-30T00:50:25.031Z,100.00
2018-08-30T00:52:57.148Z,100.00
2018-08-30T00:55:29.205Z,100.00
2018-08-30T00:58:01.287Z,100.00
2018-08-30T01:00:33.364Z,100.00
2018-08-30T01:03:05.460Z,100.00
2018-08-30T01:05:37.594Z,100.00
2018-08-30T01:08:09.667Z,100.00
2018-08-30T01:10:41.776Z,100.00
2018-08-30T01:13:13.870Z,100.00
2018-08-30T01:15:45.982Z,100.00
2018-08-30T01:18:20.228Z,100.00
2018-08-30T01:20:52.378Z,100.00
2018-08-30T01:23:24.466Z,100.00
2018-08-30T01:25:56.609Z,100.00
2018-08-30T01:28:28.792Z,100.00
2018-08-30T01:31:01.165Z,100.00
2018-08-30T01:33:33.213Z,100.00
2018-08-30T01:36:07.507Z,100.00
2018-08-30T01:38:39.720Z,100.00
2018-08-30T01:41:11.822Z,100.00
2018-08-30T01:43:43.874Z,100.00
2018-08-30T01:46:16.001Z,100.00
2018-08-30T01:48:48.066Z,100.00
2018-08-30T01:51:20.311Z,100.00
2018-08-30T01:53:52.549Z,100.00
2018-08-30T01:56:24.752Z,100.00
2018-08-30T01:58:56.888Z,100.00
2018-08-30T02:01:29.301Z,100.00
2018-08-30T02:04:01.576Z,100.00
2018-08-30T02:06:33.789Z,100.00
2018-08-30T02:09:06.000Z,100.00
2018-08-30T02:11:38.207Z,100.00
2018-08-30T02:14:10.452Z,100.00
2018-08-30T02:16:42.650Z,100.00
2018-08-30T02:19:14.778Z,100.00
2018-08-30T02:21:46.959Z,100.00
2018-08-30T02:24:19.279Z,100.00
2018-08-30T02:26:51.513Z,100.00
2018-08-30T02:29:23.786Z,100.00
2018-08-30T02:31:55.942Z,100.00
2018-08-30T02:34:28.044Z,100.00
2018-08-30T02:37:00.187Z,100.00
2018-08-30T02:39:32.311Z,100.00
2018-08-30T02:42:04.520Z,100.00
2018-08-30T02:44:36.637Z,100.00
2018-08-30T02:47:08.719Z,100.00
2018-08-30T02:49:41.547Z,100.00
2018-08-30T02:52:13.680Z,100.00
2018-08-30T02:54:45.773Z,100.00
2018-08-30T02:57:17.959Z,100.00
2018-08-30T02:59:50.079Z,100.00
2018-08-30T03:02:22.210Z,100.00
2018-08-30T03:04:54.328Z,100.00
2018-08-30T03:07:26.473Z,100.00
2018-08-30T03:09:58.565Z,100.00
2018-08-30T03:12:30.739Z,100.00
2018-08-30T03:15:08.469Z,100.00
2018-08-30T03:17:40.575Z,100.00
2018-08-30T03:20:13.829Z,100.00
2018-08-30T03:22:46.064Z,100.00
2018-08-30T03:25:18.197Z,100.00
2018-08-30T03:27:50.299Z,100.00
2018-08-30T03:30:22.473Z,100.00
2018-08-30T03:32:54.542Z,100.00
2018-08-30T03:35:26.620Z,100.00
2018-08-30T03:37:58.795Z,100.00
2018-08-30T03:40:31.045Z,100.00
2018-08-30T03:43:03.809Z,100.00
2018-08-30T03:45:35.953Z,100.00
2018-08-30T03:48:08.086Z,100.00
2018-08-30T03:50:40.563Z,100.00
2018-08-30T03:53:12.662Z,100.00
2018-08-30T03:55:44.818Z,100.00
2018-08-30T03:58:16.923Z,100.00
2018-08-30T04:00:49.005Z,100.00
2018-08-30T04:03:21.176Z,100.00
2018-08-30T04:05:53.275Z,100.00
2018-08-30T04:08:25.383Z,100.00
2018-08-30T04:10:57.543Z,100.00
2018-08-30T04:13:29.696Z,100.00
2018-08-30T04:16:01.729Z,100.00
2018-08-30T04:18:33.911Z,100.00
2018-08-30T04:21:05.995Z,100.00
2018-08-30T04:23:38.096Z,100.00
2018-08-30T04:26:10.174Z,100.00
2018-08-30T04:28:42.284Z,100.00
2018-08-30T04:31:14.367Z,100.00
2018-08-30T04:33:46.415Z,100.00
2018-08-30T04:36:18.491Z,100.00
2018-08-30T04:38:50.561Z,100.00
2018-08-30T04:41:23.202Z,100.00
2018-08-30T04:43:55.311Z,100.00
2018-08-30T04:46:27.475Z,100.00
2018-08-30T04:48:59.623Z,100.00
2018-08-30T04:51:31.710Z,100.00
2018-08-30T04:54:04.502Z,100.00
2018-08-30T04:56:36.575Z,100.00
2018-08-30T04:59:08.666Z,100.00
2018-08-30T05:01:40.825Z,100.00
2018-08-30T05:04:12.883Z,100.00
2018-08-30T05:06:44.997Z,100.00
2018-08-30T05:09:17.090Z,100.00
2018-08-30T05:11:49.237Z,100.00
2018-08-30T05:14:21.338Z,100.00
2018-08-30T05:16:53.423Z,100.00
2018-08-30T05:19:25.504Z,100.00
2018-08-30T05:21:57.604Z,100.00
2018-08-30T05:24:29.732Z,100.00
2018-08-30T05:27:02.003Z,100.00
2018-08-30T05:29:34.100Z,100.00
2018-08-30T05:32:06.188Z,100.00
2018-08-30T05:34:38.228Z,100.00
2018-08-30T05:37:10.379Z,100.00
2018-08-30T05:39:42.465Z,100.00
2018-08-30T05:42:14.527Z,100.00
2018-08-30T05:44:46.745Z,100.00
2018-08-30T05:47:18.783Z,100.00
2018-08-30T05:49:50.868Z,100.00
2018-08-30T05:52:22.994Z,100.00
2018-08-30T05:54:55.126Z,100.00
2018-08-30T05:57:27.197Z,100.00
2018-08-30T05:59:59.516Z,100.00
2018-08-30T06:02:31.627Z,100.00
2018-08-30T06:05:03.790Z,99.76
2018-08-30T06:07:35.924Z,99.63
2018-08-30T06:10:08.087Z,98.40
2018-08-30T06:12:40.167Z,98.23
2018-08-30T06:15:12.319Z,97.78
2018-08-30T06:17:44.446Z,96.44
2018-08-30T06:20:16.541Z,96.61
2018-08-30T06:22:48.958Z,96.75
2018-08-30T06:25:21.533Z,96.23
2018-08-30T06:27:53.735Z,95.22
2018-08-30T06:30:26.969Z,95.25
2018-08-30T06:32:59.138Z,95.42
2018-08-30T06:35:31.296Z,95.56
2018-08-30T06:38:03.395Z,95.07
2018-08-30T06:40:35.535Z,94.55
2018-08-30T06:43:07.687Z,93.36
2018-08-30T06:45:39.807Z,93.96
2018-08-30T06:48:11.969Z,92.97
2018-08-30T06:50:44.329Z,92.81
2018-08-30T06:53:16.470Z,90.67
2018-08-30T06:55:48.639Z,92.27
2018-08-30T06:58:20.746Z,90.03
2018-08-30T07:00:52.872Z,88.21
2018-08-30T07:03:24.958Z,88.51
2018-08-30T07:05:57.044Z,86.62
2018-08-30T07:08:29.253Z,86.27
2018-08-30T07:11:01.441Z,84.66
2018-08-30T07:13:33.485Z,83.93
2018-08-30T07:16:06.954Z,83.47
2018-08-30T07:18:39.096Z,81.82
2018-08-30T07:21:11.249Z,81.31
2018-08-30T07:23:43.431Z,81.15
2018-08-30T07:29:13.632Z,82.17
2018-08-30T07:31:46.691Z,82.04
2018-08-30T07:34:18.900Z,79.93
2018-08-30T07:36:50.853Z,77.26
2018-08-30T07:39:22.923Z,76.99
2018-08-30T07:41:54.976Z,75.10
2018-08-30T07:44:27.164Z,70.49
2018-08-30T07:46:59.152Z,68.84
2018-08-30T07:49:34.719Z,72.30
2018-08-30T07:52:06.896Z,73.01
2018-08-30T07:54:39.168Z,72.78
2018-08-30T07:57:11.264Z,73.81
2018-08-30T07:59:43.441Z,73.05
2018-08-30T08:02:15.647Z,73.85
2018-08-30T08:04:47.767Z,75.48
2018-08-30T08:07:20.601Z,75.10
2018-08-30T08:09:52.665Z,73.75
2018-08-30T08:12:24.908Z,76.68
2018-08-30T08:14:57.093Z,77.56
2018-08-30T08:17:29.335Z,77.98
2018-08-30T08:20:01.409Z,77.47
2018-08-30T08:22:33.598Z,76.73
2018-08-30T08:25:05.821Z,78.00
2018-08-30T08:27:37.893Z,77.64
2018-08-30T08:30:10.100Z,77.85
2018-08-30T08:32:42.308Z,76.52
2018-08-30T08:35:14.405Z,76.83
2018-08-30T08:37:46.558Z,75.87
2018-08-30T08:40:18.644Z,76.61
2018-08-30T08:42:50.817Z,76.65
2018-08-30T08:45:22.954Z,74.90
2018-08-30T08:47:55.064Z,73.59
2018-08-30T08:50:27.251Z,72.57
2018-08-30T08:52:59.300Z,69.96
2018-08-30T08:55:31.368Z,67.54
2018-08-30T08:58:03.607Z,65.59
2018-08-30T09:00:35.708Z,65.24
2018-08-30T09:03:07.903Z,65.17
2018-08-30T09:05:40.042Z,66.40
2018-08-30T09:08:12.119Z,64.88
2018-08-30T09:10:44.183Z,63.22
2018-08-30T09:13:16.360Z,61.98
2018-08-30T09:15:48.529Z,62.96
2018-08-30T09:18:20.681Z,62.78
2018-08-30T09:20:52.792Z,61.77
2018-08-30T09:23:25.002Z,61.82
2018-08-30T09:25:57.068Z,63.90
2018-08-30T09:28:29.151Z,63.51
2018-08-30T09:31:01.364Z,62.29
2018-08-30T09:33:33.425Z,63.70
2018-08-30T09:36:05.745Z,63.78
2018-08-30T09:38:37.796Z,61.73
2018-08-30T09:41:09.852Z,61.46
2018-08-30T09:50:46.079Z,64.67
2018-08-30T09:53:18.351Z,65.38
2018-08-30T09:55:50.627Z,64.30
2018-08-30T09:58:22.700Z,62.51
2018-08-30T10:01:00.714Z,62.79
2018-08-30T10:03:32.929Z,61.50
2018-08-30T10:06:05.090Z,60.35
2018-08-30T10:08:37.216Z,60.11
2018-08-30T10:11:09.414Z,60.08
2018-08-30T10:13:41.569Z,61.19
2018-08-30T10:16:13.791Z,58.43
2018-08-30T10:18:45.873Z,58.83
2018-08-30T10:21:18.095Z,57.64
2018-08-30T10:23:52.546Z,54.26
2018-08-30T10:26:24.705Z,55.77
2018-08-30T10:28:56.821Z,55.46
2018-08-30T10:31:29.106Z,55.91
2018-08-30T10:34:02.221Z,56.54
2018-08-30T10:36:34.419Z,60.70
2018-08-30T10:39:08.157Z,62.25
2018-08-30T10:41:40.266Z,68.19
2018-08-30T10:44:12.450Z,68.44
2018-08-30T10:46:44.544Z,67.78
2018-08-30T10:49:16.747Z,68.72
2018-08-30T10:51:48.936Z,68.61
2018-08-30T10:54:21.114Z,67.42
2018-08-30T10:56:53.291Z,67.41
2018-08-30T10:59:25.470Z,66.55
2018-08-30T11:01:57.608Z,64.77
2018-08-30T11:04:31.760Z,63.48
2018-08-30T11:07:03.998Z,61.39
2018-08-30T11:09:36.123Z,57.89
2018-08-30T11:12:08.626Z,58.12
2018-08-30T11:14:40.686Z,56.98
2018-08-30T11:17:12.805Z,55.49
2018-08-30T11:19:44.953Z,56.64
2018-08-30T11:22:17.057Z,55.24
2018-08-30T11:24:49.157Z,55.02
2018-08-30T11:27:21.323Z,54.41
2018-08-30T11:29:53.519Z,55.48
2018-08-30T11:32:25.609Z,54.93
2018-08-30T11:34:57.754Z,52.91
2018-08-30T11:37:29.945Z,53.06
2018-08-30T11:40:02.064Z,52.73
2018-08-30T11:42:34.189Z,52.30
2018-08-30T11:45:06.954Z,49.88
2018-08-30T11:47:45.545Z,51.11
2018-08-30T11:50:17.631Z,52.73
2018-08-30T11:52:49.793Z,54.69
2018-08-30T11:55:21.953Z,53.36
2018-08-30T11:57:54.137Z,54.69
2018-08-30T12:00:26.393Z,54.66
2018-08-30T12:02:59.275Z,52.71
2018-08-30T12:05:31.756Z,51.67
2018-08-30T12:08:05.096Z,51.82
2018-08-30T12:10:37.983Z,50.56
2018-08-30T12:13:10.109Z,49.78
2018-08-30T12:15:42.235Z,49.53
2018-08-30T12:18:14.459Z,49.51
2018-08-30T12:20:46.888Z,51.24
2018-08-30T12:23:18.840Z,51.02
2018-08-30T12:25:51.548Z,51.77
2018-08-30T12:28:23.654Z,51.75
2018-08-30T12:30:55.835Z,52.71
2018-08-30T12:33:27.963Z,51.14
2018-08-30T12:36:00.180Z,51.66
2018-08-30T12:38:32.154Z,50.50
2018-08-30T12:41:04.319Z,49.48
2018-08-30T12:43:36.524Z,50.73
2018-08-30T12:46:08.513Z,48.01
2018-08-30T12:48:40.690Z,46.83
2018-08-30T12:51:13.016Z,46.82
2018-08-30T12:53:45.008Z,47.67
2018-08-30T12:56:17.118Z,47.44
2018-08-30T12:58:53.753Z,48.81
2018-08-30T13:01:25.834Z,47.97
2018-08-30T13:03:58.093Z,48.00
2018-08-30T13:06:30.093Z,48.53
2018-08-30T13:09:02.613Z,48.16
2018-08-30T13:11:34.415Z,47.68
2018-08-30T13:14:06.587Z,47.82
2018-08-30T13:16:38.590Z,46.70
2018-08-30T13:19:10.881Z,44.33
2018-08-30T13:21:42.935Z,44.17
2018-08-30T13:24:15.206Z,45.70
2018-08-30T13:26:47.295Z,42.36
2018-08-30T13:29:19.441Z,41.24
2018-08-30T13:31:51.732Z,43.56
2018-08-30T13:34:24.011Z,42.50
2018-08-30T13:36:56.029Z,41.32
2018-08-30T13:39:28.224Z,43.60
2018-08-30T13:42:00.276Z,45.94
2018-08-30T13:44:32.231Z,46.43
2018-08-30T13:47:04.424Z,42.71
2018-08-30T13:49:36.219Z,41.76
2018-08-30T13:52:08.574Z,42.93
2018-08-30T13:54:40.561Z,45.38
2018-08-30T13:57:12.793Z,46.65
2018-08-30T13:59:45.093Z,44.26
2018-08-30T14:02:16.948Z,45.00
2018-08-30T14:04:49.303Z,46.05
2018-08-30T14:07:21.464Z,46.86
2018-08-30T14:09:53.555Z,47.41
2018-08-30T14:12:25.678Z,48.80
2018-08-30T14:14:57.805Z,46.97
2018-08-30T14:17:29.770Z,48.01
2018-08-30T14:20:01.855Z,45.19
2018-08-30T14:22:34.049Z,45.07
2018-08-30T14:25:06.115Z,47.91
2018-08-30T14:27:38.239Z,46.09
2018-08-30T14:30:10.391Z,43.36
2018-08-30T14:32:42.479Z,40.08
2018-08-30T14:35:14.678Z,39.00
2018-08-30T14:37:46.848Z,39.73
2018-08-30T14:40:18.929Z,38.91
2018-08-30T14:42:50.987Z,39.18
2018-08-30T14:45:23.049Z,42.89
2018-08-30T14:47:55.169Z,42.72
2018-08-30T14:50:27.236Z,39.91
2018-08-30T14:52:59.316Z,41.74
2018-08-30T14:55:31.489Z,41.28
2018-08-30T14:58:03.682Z,41.37
2018-08-30T15:00:35.809Z,40.74
2018-08-30T15:03:08.069Z,38.23
2018-08-30T15:05:40.323Z,39.40
2018-08-30T15:08:12.299Z,39.26
2018-08-30T15:10:44.363Z,39.48
2018-08-30T15:13:16.429Z,41.44
2018-08-30T15:15:48.640Z,43.06
2018-08-30T15:18:20.872Z,42.40
2018-08-30T15:20:53.042Z,41.85
2018-08-30T15:23:25.277Z,41.46
2018-08-30T15:25:57.193Z,41.36
2018-08-30T15:28:29.386Z,42.05
2018-08-30T15:31:01.558Z,42.80
2018-08-30T15:33:33.745Z,46.44
2018-08-30T15:36:05.945Z,45.22
2018-08-30T15:38:38.044Z,44.14
2018-08-30T15:41:10.672Z,46.78
2018-08-30T15:43:42.809Z,44.29
2018-08-30T15:46:14.884Z,44.78
2018-08-30T15:48:47.200Z,45.22
2018-08-30T15:51:19.076Z,44.69
2018-08-30T15:53:51.143Z,46.72
2018-08-30T15:56:23.236Z,46.97
2018-08-30T15:58:55.343Z,48.46
2018-08-30T16:01:27.555Z,48.33
2018-08-30T16:03:59.607Z,48.90
2018-08-30T16:06:31.692Z,49.24
2018-08-30T16:09:06.362Z,49.46
2018-08-30T16:11:38.495Z,49.18
2018-08-30T16:14:10.635Z,51.23
2018-08-30T16:16:42.772Z,50.74
2018-08-30T16:19:14.918Z,51.05
2018-08-30T16:21:47.040Z,51.71
2018-08-30T16:24:19.162Z,52.24
2018-08-30T16:26:51.200Z,52.91
2018-08-30T16:29:23.518Z,54.67
2018-08-30T16:31:55.460Z,55.06
2018-08-30T16:34:27.750Z,54.60
2018-08-30T16:36:59.900Z,53.64
2018-08-30T16:39:31.979Z,53.36
2018-08-30T16:42:04.135Z,54.36
2018-08-30T16:44:36.238Z,54.54
2018-08-30T16:47:08.401Z,54.93
2018-08-30T16:49:41.460Z,56.10
2018-08-30T16:52:13.600Z,55.84
2018-08-30T16:54:45.695Z,55.88
2018-08-30T16:57:17.923Z,56.49
2018-08-30T16:59:49.976Z,57.71
2018-08-30T17:02:22.241Z,57.14
2018-08-30T17:04:54.210Z,57.61
2018-08-30T17:07:26.359Z,58.31
2018-08-30T17:09:58.533Z,58.63
2018-08-30T17:12:30.707Z,57.54
2018-08-30T17:15:03.423Z,57.75
2018-08-30T17:17:36.554Z,57.57
2018-08-30T17:20:11.676Z,58.38
2018-08-30T17:22:43.856Z,59.21
2018-08-30T17:25:15.966Z,59.75
2018-08-30T17:27:48.032Z,59.91
2018-08-30T17:30:20.172Z,61.44
2018-08-30T17:32:52.320Z,61.41
2018-08-30T17:35:24.812Z,61.85
2018-08-30T17:37:56.954Z,63.35
2018-08-30T17:40:29.107Z,62.50
2018-08-30T17:43:01.285Z,63.86
2018-08-30T17:45:33.564Z,63.21
2018-08-30T17:48:05.678Z,64.24
2018-08-30T17:50:38.851Z,64.32
2018-08-30T17:53:10.943Z,66.06
2018-08-30T17:55:43.215Z,67.74
2018-08-30T17:58:15.773Z,68.89
2018-08-30T18:00:47.920Z,68.73
2018-08-30T18:03:20.046Z,68.90
2018-08-30T18:05:52.143Z,69.95
2018-08-30T18:08:24.245Z,69.41
2018-08-30T18:10:56.364Z,70.74
2018-08-30T18:13:28.399Z,69.84
2018-08-30T18:16:00.539Z,69.56
2018-08-30T18:18:32.727Z,70.38
2018-08-30T18:21:04.812Z,71.61
2018-08-30T18:23:36.926Z,73.77
2018-08-30T18:26:09.059Z,74.48
2018-08-30T18:28:41.137Z,75.52
2018-08-30T18:31:13.250Z,76.39
2018-08-30T18:33:45.360Z,76.23
2018-08-30T18:36:17.420Z,76.48
2018-08-30T18:38:49.512Z,77.30
2018-08-30T18:41:21.642Z,77.10
2018-08-30T18:43:53.776Z,76.90
2018-08-30T18:46:25.932Z,77.45
2018-08-30T18:48:57.987Z,79.00
2018-08-30T18:51:30.349Z,77.93
2018-08-30T18:54:02.532Z,77.71
2018-08-30T18:56:34.625Z,78.65
2018-08-30T18:59:06.711Z,79.65
2018-08-30T19:01:38.789Z,80.09
2018-08-30T19:04:10.837Z,79.12
2018-08-30T19:06:42.910Z,80.38
2018-08-30T19:09:14.982Z,81.50
2018-08-30T19:11:47.053Z,81.98
2018-08-30T19:14:21.432Z,82.67
2018-08-30T19:16:59.093Z,83.64
2018-08-30T19:19:33.419Z,85.63
2018-08-30T19:22:05.527Z,86.04
2018-08-30T19:24:43.336Z,86.41
2018-08-30T19:27:15.444Z,87.53
2018-08-30T19:29:53.254Z,86.84
2018-08-30T19:32:25.394Z,87.32
2018-08-30T19:35:02.055Z,88.70
2018-08-30T19:37:34.177Z,89.35
2018-08-30T19:40:10.111Z,90.21
2018-08-30T19:42:42.326Z,91.06
2018-08-30T19:45:14.400Z,92.25
2018-08-30T19:47:46.476Z,93.12
2018-08-30T19:50:18.555Z,93.69
2018-08-30T19:52:50.623Z,93.55
2018-08-30T19:55:22.725Z,95.01
2018-08-30T19:57:54.981Z,95.36
2018-08-30T20:00:27.141Z,95.07
2018-08-30T20:02:59.176Z,96.14
2018-08-30T20:05:31.251Z,97.06
2018-08-30T20:08:03.599Z,97.14
2018-08-30T20:10:35.713Z,97.96
2018-08-30T20:13:07.804Z,98.22
2018-08-30T20:15:39.964Z,97.88
2018-08-30T20:18:12.179Z,98.38
2018-08-30T20:20:44.356Z,98.86
2018-08-30T20:23:16.488Z,99.67
2018-08-30T20:25:48.591Z,99.77
2018-08-30T20:28:20.708Z,99.79
2018-08-30T20:30:52.790Z,99.93
2018-08-30T20:33:24.808Z,100.00
2018-08-30T20:35:56.843Z,100.00
2018-08-30T20:38:28.924Z,100.00
2018-08-30T20:41:01.018Z,100.00
2018-08-30T20:43:33.030Z,100.00
2018-08-30T20:46:05.133Z,100.00
2018-08-30T20:48:38.000Z,100.00
2018-08-30T20:51:10.064Z,100.00
2018-08-30T20:53:42.125Z,100.00
2018-08-30T20:56:14.232Z,100.00
2018-08-30T20:58:46.339Z,100.00
2018-08-30T21:01:18.399Z,100.00
2018-08-30T21:03:50.494Z,100.00
2018-08-30T21:06:22.650Z,100.00
2018-08-30T21:08:54.715Z,100.00
2018-08-30T21:11:26.780Z,100.00
2018-08-30T21:13:58.876Z,100.00
2018-08-30T21:16:31.007Z,100.00
2018-08-30T21:19:03.039Z,100.00
2018-08-30T21:21:35.106Z,100.00
2018-08-30T21:24:07.151Z,100.00
2018-08-30T21:26:39.242Z,100.00
2018-08-30T21:29:11.390Z,100.00
2018-08-30T21:31:43.470Z,100.00
2018-08-30T21:34:15.600Z,100.00
2018-08-30T21:36:47.652Z,100.00
2018-08-30T21:39:19.754Z,100.00
2018-08-30T21:41:51.875Z,100.00
2018-08-30T21:44:23.967Z,100.00
2018-08-30T21:46:56.063Z,100.00
2018-08-30T21:49:28.158Z,100.00
2018-08-30T21:52:00.283Z,100.00
2018-08-30T21:54:32.334Z,100.00
2018-08-30T21:57:04.430Z,100.00
2018-08-30T21:59:36.460Z,100.00
2018-08-30T22:02:08.521Z,100.00
2018-08-30T22:04:40.609Z,100.00
2018-08-30T22:07:12.724Z,100.00
2018-08-30T22:09:44.791Z,100.00
2018-08-30T22:12:16.852Z,100.00
2018-08-30T22:14:48.912Z,100.00
2018-08-30T22:17:20.979Z,100.00
2018-08-30T22:19:53.062Z,100.00
2018-08-30T22:22:25.167Z,100.00
2018-08-30T22:24:57.235Z,100.00
2018-08-30T22:27:29.382Z,100.00
2018-08-30T22:30:01.486Z,100.00
2018-08-30T22:32:33.571Z,100.00
2018-08-30T22:35:06.055Z,100.00
2018-08-30T22:37:38.141Z,100.00
2018-08-30T22:40:10.248Z,100.00
2018-08-30T22:42:42.296Z,100.00
2018-08-30T22:45:14.392Z,100.00
2018-08-30T22:47:46.500Z,100.00
2018-08-30T22:50:18.546Z,100.00
2018-08-30T22:52:50.636Z,100.00
2018-08-30T22:55:22.689Z,100.00
2018-08-30T22:57:54.855Z,100.00
2018-08-30T23:00:27.020Z,100.00
2018-08-30T23:02:59.120Z,100.00
2018-08-30T23:05:31.257Z,100.00
2018-08-30T23:08:03.432Z,100.00
2018-08-30T23:10:36.087Z,100.00
2018-08-30T23:13:08.179Z,100.00
2018-08-30T23:15:40.243Z,100.00
2018-08-30T23:18:12.387Z,100.00
2018-08-30T23:20:44.523Z,100.00
2018-08-30T23:23:16.636Z,100.00
2018-08-30T23:25:48.763Z,100.00
2018-08-30T23:28:20.827Z,100.00
2018-08-30T23:30:52.836Z,100.00
2018-08-30T23:33:24.879Z,100.00
2018-08-30T23:35:56.944Z,100.00
2018-08-30T23:38:29.051Z,100.00
2018-08-30T23:41:01.121Z,100.00
2018-08-30T23:43:33.156Z,100.00
2018-08-30T23:46:05.212Z,100.00
2018-08-30T23:48:37.264Z,100.00
2018-08-30T23:51:09.286Z,100.00
2018-08-30T23:53:41.321Z,100.00
2018-08-30T23:56:13.426Z,100.00
2018-08-30T23:58:56.965Z,100.00
